Time;durP1;ratioP1;P1;durP2;ratioP2;P2;SDS_P1;SDS_P2;PMS_P1;PMS_P2;Temp;Humidity;BMP_temperature;BMP_pressure;BME280_temperature;BME280_humidity;BME280_pressure;Samples;Min_cycle;Max_cycle;Signal;HPM_P1;HPM_P2
2021/10/07 00:00:58;;;;;;;8.10;5.47;;;29.10;90.30;;;;;;5066706;28;20049;-57
2021/10/07 00:03:24;;;;;;;9.52;4.80;;;29.00;90.20;;;;;;5066865;28;20025;-58
2021/10/07 00:05:51;;;;;;;7.40;5.20;;;29.00;90.20;;;;;;5067052;28;20025;-58
2021/10/07 00:08:17;;;;;;;10.20;4.55;;;29.10;90.20;;;;;;5065533;28;20060;-55
2021/10/07 00:10:44;;;;;;;11.88;5.07;;;29.10;90.30;;;;;;5066941;28;20070;-54
2021/10/07 00:13:11;;;;;;;9.05;4.65;;;29.00;90.20;;;;;;5066536;28;20020;-54
2021/10/07 00:15:37;;;;;;;10.18;5.18;;;29.00;90.20;;;;;;5066836;28;20048;-56
2021/10/07 00:18:04;;;;;;;10.40;4.50;;;29.00;90.20;;;;;;5066451;28;20191;-54
2021/10/07 00:20:30;;;;;;;10.73;5.65;;;29.00;90.20;;;;;;5066735;28;20029;-55
2021/10/07 00:22:57;;;;;;;10.48;5.90;;;29.00;90.20;;;;;;5066181;28;20314;-51
2021/10/07 00:25:24;;;;;;;14.90;5.78;;;29.00;90.20;;;;;;5066766;28;20028;-46
2021/10/07 00:27:53;;;;;;;9.48;6.22;;;29.00;90.20;;;;;;5066371;28;20035;-43
2021/10/07 00:30:22;;;;;;;15.88;8.00;;;29.00;90.30;;;;;;5066361;28;20033;-49
2021/10/07 00:40:32;;;;;;;11.95;6.30;;;28.90;90.20;;;;;;5066398;28;20070;-48
2021/10/07 00:42:59;;;;;;;10.65;5.55;;;28.90;90.20;;;;;;5066242;28;20041;-47
2021/10/07 00:45:25;;;;;;;6.97;5.13;;;28.90;90.20;;;;;;5066197;28;20294;-52
2021/10/07 00:47:52;;;;;;;9.68;5.57;;;28.90;90.10;;;;;;5065972;28;20036;-50
2021/10/07 00:50:19;;;;;;;8.55;5.20;;;28.90;90.20;;;;;;5065851;28;20067;-49
2021/10/07 00:52:45;;;;;;;8.10;5.40;;;28.90;90.00;;;;;;5065670;28;20024;-49
2021/10/07 00:55:13;;;;;;;8.38;5.78;;;28.90;90.00;;;;;;5064703;28;20319;-47
2021/10/07 00:57:41;;;;;;;11.98;6.13;;;28.80;90.00;;;;;;5065473;28;20313;-46
2021/10/07 01:00:08;;;;;;;10.05;6.13;;;28.80;89.90;;;;;;5065391;28;20053;-43
2021/10/07 01:02:36;;;;;;;9.30;5.30;;;28.80;90.10;;;;;;5065688;28;20083;-48
2021/10/07 01:05:04;;;;;;;12.07;6.03;;;28.80;89.70;;;;;;5064424;28;20029;-44
2021/10/07 01:07:30;;;;;;;10.63;6.50;;;28.80;89.70;;;;;;5065523;28;20019;-43
2021/10/07 01:09:57;;;;;;;13.00;7.10;;;28.80;89.70;;;;;;5065721;28;20028;-51
2021/10/07 01:12:24;;;;;;;13.55;6.40;;;28.80;89.60;;;;;;5065353;28;20080;-47
2021/10/07 01:14:52;;;;;;;9.90;6.20;;;28.80;89.40;;;;;;5065807;28;20340;-45
2021/10/07 01:17:28;;;;;;;14.88;7.97;;;28.80;89.30;;;;;;5065379;28;20052;-42
2021/10/07 01:19:57;;;;;;;9.35;8.20;;;28.70;89.10;;;;;;5065554;28;20317;-43
2021/10/07 01:22:26;;;;;;;9.43;7.85;;;28.70;89.20;;;;;;5065241;28;20025;-43
2021/10/07 01:24:54;;;;;;;15.15;8.20;;;28.70;89.00;;;;;;5065235;28;20029;-42
2021/10/07 01:27:25;;;;;;;16.75;9.60;;;28.70;89.00;;;;;;5065142;28;20083;-41
2021/10/07 01:30:12;;;;;;;13.35;10.13;;;28.70;88.90;;;;;;5065242;28;20335;-44
2021/10/07 01:32:41;;;;;;;18.35;9.90;;;28.70;88.80;;;;;;5065000;28;20036;-49
2021/10/07 01:35:09;;;;;;;14.43;8.68;;;28.70;88.90;;;;;;5065291;28;20025;-41
2021/10/07 01:37:37;;;;;;;17.85;8.50;;;28.70;88.90;;;;;;5064902;28;20270;-42
2021/10/07 01:40:05;;;;;;;15.68;8.50;;;28.60;88.90;;;;;;5065180;28;20032;-48
2021/10/07 01:42:32;;;;;;;13.82;8.15;;;28.60;88.90;;;;;;5064841;28;20016;-43
2021/10/07 01:44:59;;;;;;;14.75;7.38;;;28.60;89.00;;;;;;5064050;28;20059;-44
2021/10/07 01:47:25;;;;;;;14.68;6.60;;;28.70;89.00;;;;;;5064829;28;20067;-43
2021/10/07 01:49:52;;;;;;;12.13;7.00;;;28.60;88.90;;;;;;5063795;28;20040;-43
2021/10/07 01:52:19;;;;;;;12.65;6.80;;;28.60;88.90;;;;;;5064558;28;20058;-44
2021/10/07 01:54:45;;;;;;;12.65;6.85;;;28.60;88.90;;;;;;5064831;28;20094;-45
2021/10/07 01:57:12;;;;;;;11.90;6.57;;;28.60;89.00;;;;;;5064641;28;20056;-44
2021/10/07 01:59:42;;;;;;;10.18;6.85;;;28.60;89.00;;;;;;5063116;28;20033;-43
2021/10/07 02:02:09;;;;;;;11.82;7.25;;;28.60;88.90;;;;;;5064715;28;20045;-43
2021/10/07 02:04:35;;;;;;;15.00;7.97;;;28.60;89.00;;;;;;5064756;28;20025;-48
2021/10/07 02:07:02;;;;;;;13.88;7.80;;;28.60;89.00;;;;;;5064397;28;20031;-43
2021/10/07 02:09:29;;;;;;;13.90;7.65;;;28.60;89.00;;;;;;5064463;28;20031;-51
2021/10/07 02:11:56;;;;;;;12.38;7.53;;;28.60;88.90;;;;;;5064397;28;20031;-48
2021/10/07 02:14:24;;;;;;;11.93;7.30;;;28.60;88.90;;;;;;5064229;28;20025;-48
2021/10/07 02:16:51;;;;;;;13.57;9.38;;;28.60;88.80;;;;;;5064259;28;20179;-50
2021/10/07 02:19:19;;;;;;;20.40;13.07;;;28.60;88.90;;;;;;5063041;28;20025;-53
2021/10/07 02:21:46;;;;;;;17.05;10.05;;;28.50;88.80;;;;;;5064042;28;20021;-52
2021/10/07 02:24:14;;;;;;;15.13;9.68;;;28.50;88.80;;;;;;5064175;28;20039;-54
2021/10/07 02:26:41;;;;;;;16.05;11.00;;;28.50;88.70;;;;;;5064140;28;20020;-53
2021/10/07 02:29:08;;;;;;;19.90;11.82;;;28.50;88.60;;;;;;5062835;28;20029;-54
2021/10/07 02:31:35;;;;;;;16.38;13.27;;;28.50;88.70;;;;;;5064068;28;20024;-53
2021/10/07 02:34:01;;;;;;;17.63;14.48;;;28.50;88.60;;;;;;5064048;28;20039;-52
2021/10/07 02:36:28;;;;;;;18.98;11.27;;;28.50;88.50;;;;;;5063829;28;20328;-54
2021/10/07 02:38:55;;;;;;;15.70;11.02;;;28.50;88.50;;;;;;5063895;28;20021;-52
2021/10/07 02:41:21;;;;;;;14.95;11.35;;;28.40;88.50;;;;;;5063973;28;20079;-52
2021/10/07 02:43:48;;;;;;;12.55;9.93;;;28.40;88.30;;;;;;5063783;28;20013;-54
2021/10/07 02:46:15;;;;;;;14.55;10.45;;;28.50;88.30;;;;;;5064392;28;20025;-57
2021/10/07 02:48:42;;;;;;;14.57;10.52;;;28.40;88.10;;;;;;5063808;28;20213;-54
2021/10/07 02:51:09;;;;;;;17.92;10.13;;;28.40;88.10;;;;;;5064141;28;20186;-56
2021/10/07 02:53:37;;;;;;;15.57;9.50;;;28.40;88.00;;;;;;5063781;28;20025;-57
2021/10/07 02:56:04;;;;;;;13.45;9.57;;;28.40;87.90;;;;;;5064052;28;20092;-52
2021/10/07 02:58:31;;;;;;;14.55;9.25;;;28.40;87.80;;;;;;5063686;28;20047;-53
2021/10/07 03:00:58;;;;;;;13.48;8.80;;;28.40;87.70;;;;;;5063559;28;20048;-58
2021/10/07 03:03:24;;;;;;;14.25;8.00;;;28.40;87.70;;;;;;5063798;28;20032;-53
2021/10/07 03:05:52;;;;;;;12.52;7.75;;;28.40;87.70;;;;;;5063422;28;20037;-54
2021/10/07 03:08:18;;;;;;;12.27;7.80;;;28.40;87.70;;;;;;5063758;28;20022;-52
2021/10/07 03:10:45;;;;;;;10.50;7.80;;;28.40;87.70;;;;;;5063974;28;20016;-53
2021/10/07 03:13:11;;;;;;;11.32;7.88;;;28.30;87.60;;;;;;5063551;28;20079;-55
2021/10/07 03:15:38;;;;;;;18.50;7.50;;;28.30;87.80;;;;;;5063974;28;20313;-47
2021/10/07 03:18:05;;;;;;;11.13;7.50;;;28.30;87.90;;;;;;5063804;28;20039;-49
2021/10/07 03:20:31;;;;;;;12.43;7.20;;;28.30;88.00;;;;;;5063867;28;20025;-54
2021/10/07 03:22:58;;;;;;;14.65;7.60;;;28.30;88.00;;;;;;5063723;28;20030;-50
2021/10/07 03:25:24;;;;;;;11.45;7.40;;;28.30;88.00;;;;;;5063889;28;20212;-46
2021/10/07 03:27:51;;;;;;;16.25;8.02;;;28.30;88.00;;;;;;5063551;28;20058;-53
2021/10/07 03:30:18;;;;;;;15.30;7.75;;;28.30;88.00;;;;;;5063592;28;20197;-52
2021/10/07 03:32:44;;;;;;;13.05;8.07;;;28.30;87.70;;;;;;5063665;28;20096;-57
2021/10/07 03:35:11;;;;;;;12.23;8.02;;;28.30;87.60;;;;;;5063707;28;20339;-51
2021/10/07 03:37:38;;;;;;;11.80;8.13;;;28.30;87.50;;;;;;5063227;28;20036;-52
2021/10/07 03:40:10;;;;;;;13.30;7.65;;;28.30;87.40;;;;;;5063638;28;20048;-52
2021/10/07 03:42:38;;;;;;;12.05;6.95;;;28.30;87.30;;;;;;5063354;28;20032;-56
2021/10/07 03:45:06;;;;;;;11.85;7.65;;;28.30;86.90;;;;;;5063398;28;20068;-52
2021/10/07 03:47:33;;;;;;;10.43;6.95;;;28.30;86.60;;;;;;5063273;28;20033;-53
2021/10/07 03:49:59;;;;;;;9.65;6.95;;;28.30;86.80;;;;;;5063148;28;20044;-52
2021/10/07 03:52:26;;;;;;;10.30;6.45;;;28.30;86.70;;;;;;5063109;28;20035;-52
2021/10/07 03:54:54;;;;;;;9.60;6.40;;;28.30;86.30;;;;;;5063384;28;20088;-42
2021/10/07 03:57:23;;;;;;;11.48;6.78;;;28.20;86.10;;;;;;5063166;28;20032;-51
2021/10/07 03:59:51;;;;;;;10.43;6.60;;;28.30;86.20;;;;;;5063109;28;20276;-45
2021/10/07 04:02:17;;;;;;;9.75;6.40;;;28.20;86.40;;;;;;5063075;28;20025;-43
2021/10/07 04:04:44;;;;;;;8.23;6.30;;;28.20;86.10;;;;;;5063180;28;20298;-46
2021/10/07 04:07:11;;;;;;;9.30;6.70;;;28.20;86.00;;;;;;5063461;28;20025;-54
2021/10/07 04:09:37;;;;;;;10.68;6.07;;;28.20;86.30;;;;;;5066876;28;20017;-46
2021/10/07 04:12:04;;;;;;;8.00;5.60;;;28.20;86.10;;;;;;5066690;28;20023;-54
2021/10/07 04:14:31;;;;;;;7.88;5.28;;;28.20;86.20;;;;;;5066599;28;20029;-52
2021/10/07 04:16:57;;;;;;;10.02;5.10;;;28.20;86.00;;;;;;5066794;28;20085;-52
2021/10/07 04:19:24;;;;;;;8.50;5.15;;;28.20;85.90;;;;;;5066574;28;20027;-52
2021/10/07 04:21:51;;;;;;;9.40;5.57;;;28.20;86.10;;;;;;5066388;28;20025;-55
2021/10/07 04:24:17;;;;;;;9.05;5.10;;;28.20;85.90;;;;;;5066628;28;20025;-52
2021/10/07 04:26:44;;;;;;;7.70;4.60;;;28.20;85.90;;;;;;5066448;28;20013;-52
2021/10/07 04:29:11;;;;;;;8.73;4.53;;;28.20;85.70;;;;;;5066273;28;20024;-52
2021/10/07 04:31:38;;;;;;;7.65;4.28;;;28.10;85.60;;;;;;5066378;28;20339;-51
2021/10/07 04:34:07;;;;;;;7.00;4.60;;;28.20;85.60;;;;;;5066316;28;20024;-55
2021/10/07 04:36:34;;;;;;;8.25;4.45;;;28.10;85.40;;;;;;5066123;28;20021;-53
2021/10/07 04:39:01;;;;;;;7.63;4.28;;;28.20;85.40;;;;;;5066142;28;20021;-59
2021/10/07 04:41:28;;;;;;;6.03;3.88;;;28.10;85.30;;;;;;5066160;28;20400;-53
2021/10/07 04:43:54;;;;;;;7.10;4.45;;;28.10;85.20;;;;;;5065897;28;20031;-52
2021/10/07 04:46:22;;;;;;;8.45;3.75;;;28.10;85.10;;;;;;5066100;28;20352;-56
2021/10/07 04:48:49;;;;;;;6.97;4.03;;;28.10;84.90;;;;;;5066017;28;20054;-52
2021/10/07 04:51:17;;;;;;;5.38;3.72;;;28.10;84.90;;;;;;5066376;28;20056;-52
2021/10/07 04:53:43;;;;;;;7.00;3.40;;;28.10;84.90;;;;;;5065932;28;20044;-54
2021/10/07 04:56:10;;;;;;;7.70;3.35;;;28.10;84.70;;;;;;5066363;28;20028;-53
2021/10/07 04:58:37;;;;;;;6.28;3.30;;;28.10;84.70;;;;;;5065725;28;20025;-56
2021/10/07 05:01:03;;;;;;;5.55;3.50;;;28.10;84.80;;;;;;5065671;28;20104;-52
2021/10/07 05:03:30;;;;;;;7.18;3.35;;;28.10;84.80;;;;;;5065777;28;20079;-53
2021/10/07 05:05:56;;;;;;;6.88;3.00;;;28.10;84.60;;;;;;5066001;28;20059;-54
2021/10/07 05:08:23;;;;;;;8.10;3.60;;;28.10;84.70;;;;;;5065663;28;20021;-53
2021/10/07 05:10:50;;;;;;;10.10;3.33;;;28.10;84.70;;;;;;5066007;28;20037;-55
2021/10/07 05:13:16;;;;;;;5.32;2.90;;;28.10;84.60;;;;;;5065479;28;20020;-52
2021/10/07 05:15:43;;;;;;;7.85;3.00;;;28.10;84.20;;;;;;5065897;28;20056;-54
2021/10/07 05:18:10;;;;;;;5.53;3.05;;;28.10;84.00;;;;;;5065643;28;20025;-53
2021/10/07 05:20:36;;;;;;;4.75;2.95;;;28.10;84.40;;;;;;5065591;28;20075;-57
2021/10/07 05:23:04;;;;;;;4.90;3.20;;;28.10;84.30;;;;;;5065398;28;20396;-53
2021/10/07 05:25:31;;;;;;;5.80;3.22;;;28.10;84.30;;;;;;5065745;28;20221;-52
2021/10/07 05:27:57;;;;;;;7.97;3.47;;;28.00;84.20;;;;;;5065186;28;20297;-52
2021/10/07 05:30:24;;;;;;;7.68;3.38;;;28.00;84.20;;;;;;5065513;28;20044;-52
2021/10/07 05:32:51;;;;;;;6.40;3.22;;;28.00;84.20;;;;;;5065344;28;20080;-42
2021/10/07 05:35:17;;;;;;;6.03;2.70;;;28.10;84.20;;;;;;5064982;28;20374;-48
2021/10/07 05:37:44;;;;;;;9.18;3.20;;;28.00;84.10;;;;;;5065133;28;20332;-49
2021/10/07 05:40:11;;;;;;;6.15;3.00;;;28.00;84.20;;;;;;5065365;28;20049;-47
2021/10/07 05:42:38;;;;;;;5.45;2.60;;;28.00;84.20;;;;;;5064980;28;20084;-49
2021/10/07 05:45:08;;;;;;;4.40;2.80;;;28.00;84.20;;;;;;5065164;28;20025;-47
2021/10/07 05:47:36;;;;;;;5.50;2.55;;;28.00;84.20;;;;;;5064949;28;20364;-46
2021/10/07 05:50:02;;;;;;;5.10;2.90;;;28.00;84.30;;;;;;5064876;28;20029;-52
2021/10/07 05:52:29;;;;;;;7.07;2.85;;;28.00;84.30;;;;;;5064875;28;20029;-54
2021/10/07 05:54:55;;;;;;;4.28;2.80;;;28.00;84.40;;;;;;5064959;28;20033;-55
2021/10/07 05:57:24;;;;;;;5.55;2.70;;;28.00;84.20;;;;;;5064694;28;20020;-58
2021/10/07 05:59:52;;;;;;;3.50;2.83;;;28.00;84.30;;;;;;5064481;28;20053;-52
2021/10/07 06:02:19;;;;;;;5.10;2.70;;;28.00;84.30;;;;;;5064627;28;20236;-51
2021/10/07 06:04:45;;;;;;;6.70;2.67;;;28.00;84.40;;;;;;5064686;28;20047;-54
2021/10/07 06:07:12;;;;;;;5.30;2.72;;;28.00;84.40;;;;;;5064567;28;20020;-52
2021/10/07 06:09:39;;;;;;;3.22;2.45;;;28.00;84.50;;;;;;5064589;28;20051;-52
2021/10/07 06:12:06;;;;;;;6.82;2.92;;;28.00;84.30;;;;;;5064447;28;20076;-52
2021/10/07 06:14:32;;;;;;;6.28;2.50;;;27.90;84.10;;;;;;5064422;28;20028;-57
2021/10/07 06:16:59;;;;;;;5.80;2.42;;;27.90;84.10;;;;;;5064570;28;20070;-51
2021/10/07 06:19:29;;;;;;;6.13;2.70;;;28.00;84.20;;;;;;5064197;28;20213;-53
2021/10/07 06:21:55;;;;;;;7.00;2.72;;;27.90;84.10;;;;;;5064525;28;20028;-52
2021/10/07 06:24:22;;;;;;;5.47;2.67;;;27.90;83.90;;;;;;5064423;28;20020;-55
2021/10/07 06:26:49;;;;;;;6.22;2.80;;;27.90;83.70;;;;;;5064205;28;20336;-55
2021/10/07 06:29:15;;;;;;;4.75;2.75;;;27.90;83.70;;;;;;5064377;28;20032;-54
2021/10/07 06:31:42;;;;;;;5.43;3.20;;;27.90;83.80;;;;;;5063767;28;20012;-53
2021/10/07 06:34:09;;;;;;;6.88;2.90;;;27.90;83.70;;;;;;5064067;28;20024;-54
2021/10/07 06:36:36;;;;;;;5.65;3.35;;;27.90;83.60;;;;;;5063939;28;20021;-52
2021/10/07 06:39:05;;;;;;;5.28;3.00;;;27.90;83.70;;;;;;5064067;28;20020;-46
2021/10/07 06:41:32;;;;;;;5.05;2.92;;;27.90;83.70;;;;;;5063933;28;20029;-45
2021/10/07 06:43:58;;;;;;;5.80;3.05;;;27.90;83.80;;;;;;5063803;28;20020;-43
2021/10/07 06:46:25;;;;;;;6.97;3.13;;;27.90;83.80;;;;;;5064019;28;20221;-47
2021/10/07 06:48:55;;;;;;;6.10;3.03;;;27.90;83.90;;;;;;5063841;28;20029;-46
2021/10/07 06:51:25;;;;;;;5.30;3.13;;;27.90;83.90;;;;;;5063772;28;20028;-53
2021/10/07 06:53:54;;;;;;;8.00;3.40;;;27.90;84.00;;;;;;5063860;28;20062;-44
2021/10/07 06:56:22;;;;;;;7.43;4.10;;;27.90;84.00;;;;;;5063671;28;20028;-44
2021/10/07 06:58:52;;;;;;;6.00;3.30;;;27.90;84.00;;;;;;5063778;28;20017;-43
2021/10/07 07:01:28;;;;;;;8.02;3.30;;;27.90;84.00;;;;;;5063553;28;20041;-49
2021/10/07 07:03:56;;;;;;;7.13;3.45;;;27.90;84.20;;;;;;5063478;28;20024;-46
2021/10/07 07:06:24;;;;;;;5.38;3.40;;;27.90;84.10;;;;;;5063701;28;20040;-45
2021/10/07 07:08:51;;;;;;;5.97;3.83;;;27.90;84.20;;;;;;5063690;28;20032;-46
2021/10/07 07:11:18;;;;;;;6.43;3.50;;;27.90;84.30;;;;;;5063492;28;20033;-50
2021/10/07 07:13:45;;;;;;;6.57;3.67;;;27.90;84.30;;;;;;5063628;28;20021;-52
2021/10/07 07:16:12;;;;;;;6.82;4.00;;;27.90;84.30;;;;;;5064085;28;20029;-52
2021/10/07 07:18:40;;;;;;;4.88;3.55;;;27.80;84.30;;;;;;5063442;28;20100;-52
2021/10/07 07:21:07;;;;;;;7.05;3.83;;;27.80;84.30;;;;;;5063903;28;20033;-52
2021/10/07 07:23:33;;;;;;;6.38;3.72;;;27.80;84.40;;;;;;5063550;28;20187;-55
2021/10/07 07:26:00;;;;;;;4.43;3.60;;;27.80;84.50;;;;;;5063755;28;20025;-52
2021/10/07 07:28:26;;;;;;;7.05;3.70;;;27.80;84.50;;;;;;5063582;28;20020;-52
2021/10/07 07:30:53;;;;;;;6.80;3.60;;;27.80;84.50;;;;;;5063888;28;20033;-55
2021/10/07 07:33:22;;;;;;;4.68;3.58;;;27.80;84.50;;;;;;5063278;28;20100;-52
2021/10/07 07:35:49;;;;;;;6.60;3.78;;;27.80;84.50;;;;;;5063794;28;20055;-54
2021/10/07 07:38:15;;;;;;;5.68;4.15;;;27.80;84.50;;;;;;5063406;28;20021;-53
2021/10/07 07:40:43;;;;;;;6.55;3.88;;;27.80;84.60;;;;;;5063532;28;20306;-52
2021/10/07 07:43:09;;;;;;;4.70;3.80;;;27.80;84.60;;;;;;5065566;28;20024;-52
2021/10/07 07:45:37;;;;;;;4.47;3.55;;;27.80;84.50;;;;;;5067590;28;20213;-52
2021/10/07 07:48:03;;;;;;;4.63;3.75;;;27.80;84.60;;;;;;5067062;28;20317;-51
2021/10/07 07:50:30;;;;;;;6.55;3.78;;;27.80;84.50;;;;;;5067443;28;20301;-51
2021/10/07 07:52:58;;;;;;;5.50;4.05;;;27.80;84.50;;;;;;5067110;28;20336;-52
2021/10/07 07:55:24;;;;;;;5.43;4.30;;;27.80;84.50;;;;;;5067234;28;20043;-53
2021/10/07 07:57:51;;;;;;;5.38;4.10;;;27.70;84.40;;;;;;5067145;28;20021;-59
2021/10/07 08:00:18;;;;;;;5.65;4.07;;;27.70;84.40;;;;;;5066804;28;20047;-53
2021/10/07 08:02:45;;;;;;;4.70;3.85;;;27.70;84.40;;;;;;5066817;28;20044;-54
2021/10/07 08:05:11;;;;;;;5.38;3.80;;;27.70;84.40;;;;;;5067135;28;20025;-52
2021/10/07 08:07:38;;;;;;;6.60;4.82;;;27.70;84.50;;;;;;5066857;28;20227;-52
2021/10/07 08:10:05;;;;;;;8.50;4.40;;;27.70;84.60;;;;;;5066888;28;20055;-52
2021/10/07 08:12:33;;;;;;;6.75;3.78;;;27.70;84.60;;;;;;5066845;28;20079;-56
2021/10/07 08:15:01;;;;;;;9.10;4.88;;;27.70;84.60;;;;;;5066907;28;20032;-52
2021/10/07 08:17:30;;;;;;;8.20;4.10;;;27.70;84.60;;;;;;5066528;28;20021;-51
2021/10/07 08:19:57;;;;;;;6.22;4.40;;;27.70;84.60;;;;;;5066767;28;20029;-51
2021/10/07 08:22:24;;;;;;;6.95;4.68;;;27.70;84.80;;;;;;5066677;28;20340;-53
2021/10/07 08:24:50;;;;;;;7.95;4.57;;;27.70;84.80;;;;;;5066543;28;20032;-53
2021/10/07 08:27:18;;;;;;;10.93;4.85;;;27.70;84.80;;;;;;5066505;28;20017;-52
2021/10/07 08:29:47;;;;;;;5.03;4.38;;;27.70;84.80;;;;;;5066550;28;20363;-59
2021/10/07 08:32:14;;;;;;;5.82;4.40;;;27.70;84.80;;;;;;5066325;28;20080;-52
2021/10/07 08:34:40;;;;;;;9.15;4.47;;;27.70;84.90;;;;;;5066413;28;20024;-43
2021/10/07 08:37:07;;;;;;;6.00;4.88;;;27.70;84.90;;;;;;5066349;28;20262;-44
2021/10/07 08:39:33;;;;;;;5.32;4.50;;;27.60;84.90;;;;;;5066132;28;20025;-46
2021/10/07 08:42:00;;;;;;;6.20;4.35;;;27.60;84.90;;;;;;5066210;28;20321;-47
2021/10/07 08:44:29;;;;;;;8.68;4.65;;;27.60;84.90;;;;;;5066295;28;20243;-46
2021/10/07 08:46:56;;;;;;;8.77;4.90;;;27.60;85.00;;;;;;5066225;28;20028;-46
2021/10/07 08:49:25;;;;;;;8.40;4.65;;;27.60;85.00;;;;;;5065923;28;20044;-51
2021/10/07 08:51:52;;;;;;;5.72;4.72;;;27.60;85.10;;;;;;5066301;28;20021;-47
2021/10/07 08:54:20;;;;;;;7.40;4.70;;;27.60;85.00;;;;;;5065502;28;20321;-53
2021/10/07 08:56:47;;;;;;;8.25;4.80;;;27.60;85.00;;;;;;5065920;28;20071;-49
2021/10/07 08:59:18;;;;;;;9.10;4.93;;;27.60;84.90;;;;;;5065881;28;20222;-46
2021/10/07 09:01:47;;;;;;;6.03;5.07;;;27.60;85.00;;;;;;5065562;28;20037;-56
2021/10/07 09:04:26;;;;;;;6.07;4.60;;;27.60;85.00;;;;;;5065852;28;20036;-52
2021/10/07 09:07:09;;;;;;;8.55;5.15;;;27.60;85.00;;;;;;5065892;28;20252;-59
2021/10/07 09:09:41;;;;;;;5.88;4.47;;;27.60;84.90;;;;;;5065814;28;20024;-46
2021/10/07 09:12:09;;;;;;;6.97;4.47;;;27.50;84.90;;;;;;5065457;28;20297;-44
2021/10/07 09:14:38;;;;;;;9.98;5.13;;;27.60;85.00;;;;;;5065772;28;20036;-44
2021/10/07 09:17:07;;;;;;;7.15;5.13;;;27.60;85.00;;;;;;5065576;28;20025;-43
2021/10/07 09:19:37;;;;;;;9.57;4.72;;;27.50;84.80;;;;;;5065308;28;20080;-45
2021/10/07 09:22:28;;;;;;;10.43;4.95;;;27.60;84.80;;;;;;5065426;28;20048;-46
2021/10/07 09:25:04;;;;;;;6.60;4.25;;;27.50;84.70;;;;;;5065402;28;20028;-44
2021/10/07 09:27:36;;;;;;;6.28;4.38;;;27.50;84.60;;;;;;5065355;28;20020;-47
2021/10/07 09:30:06;;;;;;;10.13;4.47;;;27.50;84.60;;;;;;5065463;28;20305;-52
2021/10/07 09:32:33;;;;;;;5.75;4.97;;;27.50;84.60;;;;;;5065302;28;20217;-43
2021/10/07 09:35:06;;;;;;;6.18;4.85;;;27.50;84.50;;;;;;5065205;28;20032;-49
2021/10/07 09:37:39;;;;;;;6.95;4.65;;;27.50;84.50;;;;;;5064959;28;20092;-49
2021/10/07 09:40:10;;;;;;;7.65;4.50;;;27.50;84.90;;;;;;5065219;28;20029;-50
2021/10/07 09:42:40;;;;;;;10.18;5.25;;;27.50;84.40;;;;;;5064933;28;20084;-51
2021/10/07 09:45:11;;;;;;;8.90;4.60;;;27.50;84.20;;;;;;5065374;28;20075;-52
2021/10/07 09:47:49;;;;;;;7.72;4.20;;;27.50;84.20;;;;;;5064950;28;20367;-52
2021/10/07 09:50:22;;;;;;;6.22;4.50;;;27.50;84.10;;;;;;5064990;28;20032;-55
2021/10/07 09:52:52;;;;;;;6.43;4.57;;;27.40;83.90;;;;;;5064838;28;20024;-43
2021/10/07 09:55:24;;;;;;;7.10;4.57;;;27.50;83.90;;;;;;5065030;28;20245;-44
2021/10/07 09:58:00;;;;;;;6.75;4.15;;;27.50;83.70;;;;;;5064731;28;20021;-43
2021/10/07 10:00:30;;;;;;;6.07;5.18;;;27.50;83.80;;;;;;5064532;28;20366;-43
2021/10/07 10:03:00;;;;;;;6.80;4.03;;;27.40;83.60;;;;;;5064594;28;20020;-43
2021/10/07 10:05:28;;;;;;;8.38;4.38;;;27.40;83.60;;;;;;5064218;28;20028;-46
2021/10/07 10:07:55;;;;;;;7.20;4.30;;;27.40;83.50;;;;;;5064438;28;20051;-43
2021/10/07 10:10:21;;;;;;;8.63;4.85;;;27.40;83.40;;;;;;5064807;28;20055;-47
2021/10/07 10:12:48;;;;;;;6.70;4.20;;;27.40;83.40;;;;;;5064493;28;20017;-47
2021/10/07 10:15:17;;;;;;;7.07;4.20;;;27.40;83.30;;;;;;5064652;28;20024;-50
2021/10/07 10:17:44;;;;;;;4.88;3.80;;;27.40;83.30;;;;;;5064345;28;20351;-53
2021/10/07 10:20:31;;;;;;;7.05;3.97;;;27.40;83.20;;;;;;5064666;28;20070;-58
2021/10/07 10:23:01;;;;;;;6.18;4.10;;;27.40;83.10;;;;;;5064232;28;20171;-54
2021/10/07 10:25:30;;;;;;;7.13;4.30;;;27.40;83.20;;;;;;5064611;28;20047;-52
2021/10/07 10:28:04;;;;;;;4.68;3.90;;;27.40;83.10;;;;;;5064117;28;20071;-55
2021/10/07 10:30:44;;;;;;;6.35;4.22;;;27.30;83.50;;;;;;5064474;28;20052;-56
2021/10/07 10:33:28;;;;;;;6.97;4.35;;;27.40;83.10;;;;;;5063973;28;20025;-53
2021/10/07 10:35:55;;;;;;;7.25;4.35;;;27.30;82.90;;;;;;5064499;28;20067;-51
2021/10/07 10:38:22;;;;;;;8.85;4.13;;;27.40;83.00;;;;;;5064112;28;20240;-52
2021/10/07 10:40:50;;;;;;;7.97;4.43;;;27.40;83.00;;;;;;5064232;28;20033;-53
2021/10/07 10:43:25;;;;;;;6.10;4.10;;;27.30;83.00;;;;;;5064017;28;20022;-52
2021/10/07 10:45:52;;;;;;;7.43;4.40;;;27.40;83.10;;;;;;5064196;28;20025;-52
2021/10/07 10:48:49;;;;;;;9.48;4.22;;;27.40;83.10;;;;;;5063895;28;20012;-53
2021/10/07 10:51:19;;;;;;;7.15;4.15;;;27.30;83.10;;;;;;5064200;28;20075;-51
2021/10/07 10:54:00;;;;;;;8.52;4.55;;;27.40;83.20;;;;;;5063854;28;20071;-52
2021/10/07 10:56:57;;;;;;;7.70;4.28;;;27.30;83.20;;;;;;5063694;28;20028;-52
2021/10/07 10:59:27;;;;;;;6.28;4.30;;;27.40;83.30;;;;;;5062014;28;20040;-58
2021/10/07 11:02:15;;;;;;;7.95;4.40;;;27.40;83.30;;;;;;5063794;28;20028;-52
2021/10/07 11:04:47;;;;;;;5.32;4.80;;;27.30;83.20;;;;;;5063929;28;20032;-53
2021/10/07 11:07:18;;;;;;;8.27;4.82;;;27.40;83.30;;;;;;5063510;28;20080;-52
2021/10/07 11:10:02;;;;;;;7.60;4.78;;;27.40;83.30;;;;;;5063783;28;20096;-52
2021/10/07 11:12:45;;;;;;;6.55;4.75;;;27.40;83.40;;;;;;5063624;28;20123;-52
2021/10/07 11:15:13;;;;;;;8.35;4.95;;;27.40;83.50;;;;;;5063841;28;20032;-54
2021/10/07 11:17:41;;;;;;;10.95;5.70;;;27.40;83.50;;;;;;5066609;28;20272;-44
2021/10/07 11:20:11;;;;;;;10.07;5.30;;;27.40;83.60;;;;;;5067577;28;20025;-45
2021/10/07 11:22:38;;;;;;;6.15;4.97;;;27.40;83.60;;;;;;5067501;28;20024;-49
2021/10/07 11:25:06;;;;;;;8.05;4.90;;;27.40;83.70;;;;;;5067807;28;20206;-41
2021/10/07 11:27:36;;;;;;;8.73;5.72;;;27.40;83.80;;;;;;5067588;28;20024;-41
2021/10/07 11:30:07;;;;;;;9.98;4.78;;;27.50;83.80;;;;;;5067557;28;20309;-41
2021/10/07 11:32:35;;;;;;;7.07;4.78;;;27.50;83.60;;;;;;5067432;28;20029;-41
2021/10/07 11:35:09;;;;;;;7.13;4.88;;;27.70;83.60;;;;;;5067650;28;20033;-44
2021/10/07 11:38:00;;;;;;;8.52;5.00;;;27.80;82.90;;;;;;5067222;28;20021;-41
2021/10/07 11:40:37;;;;;;;7.05;4.72;;;27.80;83.00;;;;;;5067636;28;20037;-42
2021/10/07 11:43:10;;;;;;;7.93;5.25;;;27.70;83.30;;;;;;5067338;28;20017;-47
2021/10/07 11:45:39;;;;;;;7.22;5.47;;;27.70;83.50;;;;;;5067542;28;20029;-50
2021/10/07 11:48:10;;;;;;;8.32;4.97;;;27.70;83.70;;;;;;5067079;28;20040;-46
2021/10/07 11:50:46;;;;;;;7.63;4.88;;;27.70;84.00;;;;;;5067372;28;20071;-47
2021/10/07 11:53:15;;;;;;;8.52;4.93;;;27.70;84.00;;;;;;5066976;28;20021;-47
2021/10/07 11:55:47;;;;;;;8.63;5.45;;;27.70;84.10;;;;;;5067394;28;20032;-48
2021/10/07 11:58:14;;;;;;;;;;;27.70;84.30;;;;;;5067761;28;20317;-51
2021/10/07 12:00:47;;;;;;;10.82;5.90;;;27.70;84.40;;;;;;5066658;28;20196;-54
2021/10/07 12:03:13;;;;;;;7.95;5.32;;;27.70;84.60;;;;;;5066991;28;20032;-52
2021/10/07 12:05:41;;;;;;;7.10;5.68;;;27.60;84.50;;;;;;5066828;28;20032;-52
2021/10/07 12:08:13;;;;;;;7.53;5.22;;;27.60;84.60;;;;;;5066668;28;20328;-53
2021/10/07 12:10:54;;;;;;;7.43;5.65;;;27.70;84.80;;;;;;5067220;28;20032;-52
2021/10/07 12:13:23;;;;;;;10.57;6.10;;;27.70;84.80;;;;;;5066524;28;20056;-52
2021/10/07 12:15:56;;;;;;;8.25;5.57;;;27.70;85.10;;;;;;5067103;28;20297;-53
2021/10/07 12:18:24;;;;;;;8.90;5.75;;;27.70;85.20;;;;;;5066539;28;20093;-56
2021/10/07 12:21:03;;;;;;;9.23;6.32;;;27.60;85.20;;;;;;5066926;28;20052;-51
2021/10/07 12:23:31;;;;;;;7.95;5.97;;;27.60;85.40;;;;;;5066573;28;20043;-52
2021/10/07 12:26:04;;;;;;;9.95;5.75;;;27.60;85.50;;;;;;5066708;28;20021;-53
2021/10/07 12:28:30;;;;;;;10.93;6.00;;;27.70;85.60;;;;;;5065655;28;20390;-52
2021/10/07 12:31:03;;;;;;;8.23;6.13;;;27.70;85.60;;;;;;5066716;28;20032;-51
2021/10/07 12:33:30;;;;;;;;;;;27.70;85.80;;;;;;5066554;28;20336;-51
2021/10/07 12:36:00;;;;;;;7.85;5.88;;;27.70;85.90;;;;;;5066611;28;19952;-55
2021/10/07 12:38:27;;;;;;;11.48;6.30;;;27.70;86.00;;;;;;5066163;28;20080;-51
2021/10/07 12:40:59;;;;;;;8.63;5.95;;;27.70;86.00;;;;;;5066488;28;20318;-53
2021/10/07 12:43:28;;;;;;;9.73;6.45;;;27.70;86.00;;;;;;5066158;28;20049;-52
2021/10/07 12:46:03;;;;;;;8.10;6.20;;;27.70;86.00;;;;;;5066395;28;20306;-56
2021/10/07 12:48:57;;;;;;;11.73;6.20;;;27.70;86.10;;;;;;5065957;28;20024;-54
2021/10/07 12:51:27;;;;;;;9.32;6.40;;;27.70;86.20;;;;;;5065978;28;20025;-54
2021/10/07 12:53:54;;;;;;;9.23;6.60;;;27.80;86.20;;;;;;5065775;28;20127;-56
2021/10/07 12:56:29;;;;;;;9.80;6.38;;;27.80;86.30;;;;;;5065780;28;20098;-55
2021/10/07 12:59:04;;;;;;;8.13;5.90;;;27.80;86.20;;;;;;5065831;28;20289;-55